createdAt,value
2019-01-15T00:02:26.916Z,8.43
2019-01-15T00:05:11.444Z,14.37
2019-01-15T00:07:56.551Z,14.07
2019-01-15T00:10:41.336Z,17.50
2019-01-15T00:13:26.466Z,14.20
2019-01-15T00:16:11.442Z,11.03
2019-01-15T00:18:56.541Z,14.40
2019-01-15T00:21:41.008Z,9.73
2019-01-15T00:24:26.146Z,11.03
2019-01-15T00:27:11.279Z,12.43
2019-01-15T00:29:55.760Z,10.47
2019-01-15T00:32:41.069Z,13.87
2019-01-15T00:35:25.495Z,10.00
2019-01-15T00:38:10.141Z,8.23
2019-01-15T00:40:55.302Z,13.20
2019-01-15T00:43:39.749Z,16.17
2019-01-15T00:46:24.860Z,11.50
2019-01-15T00:49:09.792Z,11.27
2019-01-15T00:51:54.220Z,10.33
2019-01-15T00:54:38.974Z,13.97
2019-01-15T00:57:24.130Z,12.93
2019-01-15T01:00:16.074Z,15.50
2019-01-15T01:03:00.944Z,8.03
2019-01-15T01:05:46.025Z,13.93
2019-01-15T01:08:31.065Z,11.53
2019-01-15T01:11:15.846Z,11.77
2019-01-15T01:14:00.334Z,7.93
2019-01-15T01:16:44.978Z,15.77
2019-01-15T01:19:29.435Z,10.50
2019-01-15T01:22:13.825Z,9.20
2019-01-15T01:24:58.501Z,7.57
2019-01-15T01:27:43.506Z,8.40
2019-01-15T01:30:28.731Z,13.10
2019-01-15T01:33:13.494Z,9.07
2019-01-15T01:35:58.292Z,10.87
2019-01-15T01:38:43.119Z,15.07
2019-01-15T01:41:27.988Z,15.10
2019-01-15T01:44:12.736Z,9.60
2019-01-15T01:46:57.423Z,12.10
2019-01-15T01:49:42.056Z,11.07
2019-01-15T01:52:26.836Z,9.67
2019-01-15T01:55:12.839Z,9.47
2019-01-15T01:57:57.675Z,13.83
2019-01-15T02:00:42.463Z,11.27
2019-01-15T02:03:26.916Z,10.17
2019-01-15T02:06:11.690Z,10.70
2019-01-15T02:08:56.115Z,11.27
2019-01-15T02:11:40.690Z,10.07
2019-01-15T02:14:25.584Z,8.00
2019-01-15T02:17:10.444Z,9.57
2019-01-15T02:19:55.315Z,11.57
2019-01-15T02:22:39.911Z,15.13
2019-01-15T02:25:25.250Z,10.63
2019-01-15T02:28:10.090Z,10.93
2019-01-15T02:30:54.711Z,13.03
2019-01-15T02:33:39.243Z,14.20
2019-01-15T02:36:23.848Z,12.70
2019-01-15T02:39:09.026Z,12.53
2019-01-15T02:41:54.180Z,9.27
2019-01-15T02:44:39.148Z,11.87
2019-01-15T02:47:24.257Z,9.33
2019-01-15T02:50:13.859Z,11.70
2019-01-15T02:52:58.348Z,9.80
2019-01-15T02:55:42.883Z,15.70
2019-01-15T02:58:27.574Z,17.50
2019-01-15T03:01:12.389Z,14.37
2019-01-15T03:03:56.983Z,16.07
2019-01-15T03:06:41.493Z,16.07
2019-01-15T03:09:26.068Z,15.73
2019-01-15T03:12:10.658Z,14.30
2019-01-15T03:14:55.537Z,18.23
2019-01-15T03:17:40.475Z,11.63
2019-01-15T03:20:25.154Z,10.63
2019-01-15T03:23:09.870Z,12.40
2019-01-15T03:25:54.836Z,11.77
2019-01-15T03:28:39.292Z,15.57
2019-01-15T03:31:23.925Z,16.23
2019-01-15T03:34:08.675Z,18.77
2019-01-15T03:36:53.617Z,18.77
2019-01-15T03:39:38.232Z,15.23
2019-01-15T03:42:22.830Z,15.50
2019-01-15T03:45:07.933Z,16.13
2019-01-15T03:47:52.732Z,13.40
2019-01-15T03:50:37.626Z,17.20
2019-01-15T03:53:22.181Z,12.37
2019-01-15T03:56:06.977Z,16.13
2019-01-15T03:58:52.081Z,17.97
2019-01-15T04:01:36.920Z,16.60
2019-01-15T04:04:21.653Z,14.33
2019-01-15T04:07:06.428Z,13.60
2019-01-15T04:09:51.280Z,15.67
2019-01-15T04:12:35.780Z,14.10
2019-01-15T04:15:20.565Z,10.40
2019-01-15T04:18:05.476Z,12.60
2019-01-15T04:20:49.968Z,15.63
2019-01-15T04:23:34.595Z,12.70
2019-01-15T04:26:19.054Z,18.03
2019-01-15T04:29:03.615Z,13.80
2019-01-15T04:31:48.127Z,16.40
2019-01-15T04:34:32.753Z,14.23
2019-01-15T04:37:17.738Z,12.73
2019-01-15T04:40:05.552Z,15.43
2019-01-15T04:42:50.396Z,25.33
2019-01-15T04:45:35.956Z,15.70
2019-01-15T04:48:21.782Z,14.07
2019-01-15T04:51:06.371Z,15.60
2019-01-15T04:53:50.978Z,20.10
2019-01-15T04:56:36.288Z,14.93
2019-01-15T04:59:21.480Z,15.83
2019-01-15T05:02:06.163Z,18.33
2019-01-15T05:04:51.257Z,20.77
2019-01-15T05:07:35.850Z,18.23
2019-01-15T05:10:20.888Z,19.33
2019-01-15T05:13:05.584Z,19.27
2019-01-15T05:15:50.519Z,17.97
2019-01-15T05:18:35.260Z,18.10
2019-01-15T05:21:19.680Z,18.10
2019-01-15T05:24:04.565Z,14.87
2019-01-15T05:26:49.434Z,15.67
2019-01-15T05:29:34.095Z,20.23
2019-01-15T05:32:19.123Z,17.70
2019-01-15T05:35:05.092Z,13.90
2019-01-15T05:37:49.897Z,14.93
2019-01-15T05:40:35.514Z,22.07
2019-01-15T05:43:20.579Z,16.07
2019-01-15T05:46:05.245Z,15.20
2019-01-15T05:48:50.399Z,20.67
2019-01-15T05:51:35.962Z,18.40
2019-01-15T05:54:21.094Z,18.63
2019-01-15T05:57:06.087Z,18.40
2019-01-15T05:59:50.727Z,15.37
2019-01-15T06:02:35.479Z,15.23
2019-01-15T06:05:20.020Z,16.20
2019-01-15T06:08:05.079Z,15.70
2019-01-15T06:10:49.754Z,15.93
2019-01-15T06:13:34.284Z,17.70
2019-01-15T06:16:18.975Z,16.50
2019-01-15T06:19:03.962Z,13.77
2019-01-15T06:21:48.962Z,15.17
2019-01-15T06:24:33.399Z,13.80
2019-01-15T06:27:17.962Z,11.80
2019-01-15T06:30:14.971Z,18.17
2019-01-15T06:32:59.798Z,13.43
2019-01-15T06:35:44.843Z,14.20
2019-01-15T06:38:29.715Z,17.73
2019-01-15T06:41:14.299Z,14.20
2019-01-15T06:43:58.942Z,17.63
2019-01-15T06:46:43.987Z,13.27
2019-01-15T06:49:28.689Z,15.60
2019-01-15T06:52:13.295Z,14.10
2019-01-15T06:54:57.927Z,13.93
2019-01-15T06:57:43.177Z,15.27
2019-01-15T07:00:29.621Z,15.13
2019-01-15T07:03:14.097Z,15.97
2019-01-15T07:05:58.722Z,16.03
2019-01-15T07:08:44.158Z,13.17
2019-01-15T07:11:29.153Z,15.23
2019-01-15T07:14:13.841Z,10.73
2019-01-15T07:16:58.790Z,13.03
2019-01-15T07:19:43.354Z,10.87
2019-01-15T07:22:27.868Z,12.17
2019-01-15T07:25:18.814Z,11.17
2019-01-15T07:28:03.514Z,10.10
2019-01-15T07:30:48.608Z,11.77
2019-01-15T07:33:33.268Z,9.73
2019-01-15T07:36:17.739Z,10.43
2019-01-15T07:39:05.769Z,11.73
2019-01-15T07:41:50.568Z,11.80
2019-01-15T07:44:35.283Z,14.23
2019-01-15T07:47:20.384Z,14.17
2019-01-15T07:50:15.142Z,11.17
2019-01-15T07:53:00.284Z,14.97
2019-01-15T07:55:44.839Z,12.50
2019-01-15T07:58:29.892Z,14.17
2019-01-15T08:01:16.560Z,14.67
2019-01-15T08:04:01.348Z,18.23
2019-01-15T08:06:46.267Z,14.30
2019-01-15T08:09:31.359Z,14.17
2019-01-15T08:12:15.937Z,18.60
2019-01-15T08:15:00.319Z,17.10
2019-01-15T08:17:45.062Z,19.60
2019-01-15T08:20:30.104Z,18.00
2019-01-15T08:23:14.578Z,16.20
2019-01-15T08:25:59.143Z,21.97
2019-01-15T08:28:43.914Z,17.33
2019-01-15T08:34:20.098Z,16.47
2019-01-15T08:37:04.987Z,17.63
2019-01-15T08:39:49.423Z,18.67
2019-01-15T08:42:34.810Z,19.03
2019-01-15T08:45:19.876Z,20.83
2019-01-15T08:48:06.741Z,24.47
2019-01-15T08:50:52.437Z,19.27
2019-01-15T08:53:37.337Z,20.20
2019-01-15T08:56:22.088Z,21.50
2019-01-15T08:59:06.991Z,20.10
2019-01-15T09:01:51.949Z,19.43
2019-01-15T09:04:38.348Z,19.37
2019-01-15T09:07:23.335Z,21.03
2019-01-15T09:10:12.373Z,20.13
2019-01-15T09:12:57.247Z,20.93
2019-01-15T09:15:42.033Z,19.77
2019-01-15T09:18:26.958Z,19.63
2019-01-15T09:21:11.938Z,17.90
2019-01-15T09:23:56.929Z,19.30
2019-01-15T09:26:41.309Z,21.33
2019-01-15T09:29:25.913Z,17.50
2019-01-15T09:32:10.324Z,19.07
2019-01-15T09:34:55.187Z,21.47
2019-01-15T09:37:40.691Z,20.87
2019-01-15T09:40:25.585Z,21.70
2019-01-15T09:43:10.276Z,19.37
2019-01-15T09:45:54.957Z,19.80
2019-01-15T09:48:39.767Z,20.03
2019-01-15T09:51:24.534Z,22.90
2019-01-15T09:54:09.153Z,23.53
2019-01-15T09:56:53.708Z,22.20
2019-01-15T09:59:38.695Z,21.77
2019-01-15T10:02:24.107Z,21.23
2019-01-15T10:05:08.819Z,20.30
2019-01-15T10:07:53.876Z,23.80
2019-01-15T10:10:38.813Z,20.53
2019-01-15T10:13:23.419Z,23.93
2019-01-15T10:16:08.110Z,20.43
2019-01-15T10:18:52.634Z,21.30
2019-01-15T10:21:37.449Z,21.57
2019-01-15T10:24:22.408Z,20.60
2019-01-15T10:27:07.823Z,19.87
2019-01-15T10:29:59.099Z,21.60
2019-01-15T10:32:44.387Z,16.93
2019-01-15T10:35:32.800Z,21.10
2019-01-15T10:38:17.669Z,24.13
2019-01-15T10:41:03.138Z,21.47
2019-01-15T10:43:47.867Z,18.50
2019-01-15T10:46:32.747Z,22.73
2019-01-15T10:49:17.582Z,21.33
2019-01-15T10:52:02.838Z,19.97
2019-01-15T10:54:47.696Z,22.40
2019-01-15T10:57:32.199Z,17.57
2019-01-15T11:00:17.040Z,19.97
2019-01-15T11:03:01.981Z,24.17
2019-01-15T11:05:46.974Z,19.77
2019-01-15T11:08:31.816Z,20.13
2019-01-15T11:11:16.377Z,20.77
2019-01-15T11:14:01.021Z,19.07
2019-01-15T11:16:46.152Z,20.43
2019-01-15T11:19:31.096Z,19.87
2019-01-15T11:22:15.528Z,22.57
2019-01-15T11:25:00.170Z,20.97
2019-01-15T11:27:44.768Z,18.30
2019-01-15T11:30:29.528Z,21.83
2019-01-15T11:33:14.437Z,19.73
2019-01-15T11:35:59.016Z,17.20
2019-01-15T11:38:43.653Z,19.57
2019-01-15T11:41:28.612Z,28.20
2019-01-15T11:44:13.108Z,19.53
2019-01-15T11:46:57.756Z,21.20
2019-01-15T11:49:42.772Z,21.90
2019-01-15T11:52:27.377Z,24.17
2019-01-15T11:55:13.415Z,17.33
2019-01-15T11:57:58.112Z,21.13
2019-01-15T12:00:45.057Z,18.30
2019-01-15T12:03:34.976Z,19.33
2019-01-15T12:06:37.944Z,18.27
2019-01-15T12:09:27.133Z,19.20
2019-01-15T12:12:22.309Z,21.47
2019-01-15T12:15:26.997Z,18.67
2019-01-15T12:18:13.926Z,20.60
2019-01-15T12:21:09.334Z,19.07
2019-01-15T12:24:10.673Z,15.60
2019-01-15T12:26:57.168Z,21.47
2019-01-15T12:29:52.998Z,17.17
2019-01-15T12:32:51.674Z,18.20
2019-01-15T12:35:40.791Z,16.70
2019-01-15T12:38:27.703Z,16.97
2019-01-15T12:41:14.441Z,19.07
2019-01-15T12:44:04.046Z,18.13
2019-01-15T12:46:56.259Z,20.07
2019-01-15T12:49:57.578Z,15.23
2019-01-15T12:52:50.270Z,18.10
2019-01-15T12:55:39.465Z,19.33
2019-01-15T12:58:25.893Z,16.87
2019-01-15T13:01:30.547Z,17.13
2019-01-15T13:04:23.342Z,19.47
2019-01-15T13:07:15.470Z,18.70
2019-01-15T13:10:07.624Z,17.33
2019-01-15T13:12:56.653Z,16.43
2019-01-15T13:15:58.555Z,21.57
2019-01-15T13:19:01.565Z,17.67
2019-01-15T13:21:53.792Z,17.90
2019-01-15T13:24:52.478Z,19.03
2019-01-15T13:27:55.810Z,20.93
2019-01-15T13:30:51.052Z,20.57
2019-01-15T13:33:47.103Z,18.40
2019-01-15T13:36:33.849Z,20.73
2019-01-15T13:39:20.244Z,20.93
2019-01-15T13:42:09.426Z,18.87
2019-01-15T13:44:56.411Z,22.27
2019-01-15T13:47:43.216Z,20.10
2019-01-15T13:50:29.599Z,21.73
2019-01-15T13:53:16.306Z,20.43
2019-01-15T13:56:12.718Z,23.30
2019-01-15T13:59:15.755Z,21.13
2019-01-15T14:02:07.942Z,17.83
2019-01-15T14:05:00.498Z,21.93
2019-01-15T14:08:05.014Z,18.50
2019-01-15T14:10:51.996Z,22.60
2019-01-15T14:13:38.337Z,22.27
2019-01-15T14:16:42.786Z,24.63
2019-01-15T14:19:29.211Z,20.70
2019-01-15T14:22:32.120Z,21.17
2019-01-15T14:25:18.441Z,24.97
2019-01-15T14:28:10.912Z,21.70
2019-01-15T14:31:13.658Z,17.20
2019-01-15T14:34:05.921Z,19.47
2019-01-15T14:36:52.829Z,16.80
2019-01-15T14:39:56.077Z,16.10
2019-01-15T14:42:51.274Z,20.23
2019-01-15T14:45:43.908Z,19.37
2019-01-15T14:48:36.611Z,17.80
2019-01-15T14:51:39.887Z,19.77
2019-01-15T14:54:38.215Z,18.27
2019-01-15T14:57:41.268Z,21.10
2019-01-15T15:00:27.823Z,15.10
2019-01-15T15:03:14.418Z,16.47
2019-01-15T15:06:06.498Z,15.70
2019-01-15T15:08:53.041Z,16.03
2019-01-15T15:11:57.190Z,20.83
2019-01-15T15:14:49.285Z,20.20
2019-01-15T15:17:50.952Z,15.27
2019-01-15T15:20:55.196Z,16.70
2019-01-15T15:23:47.727Z,16.43
2019-01-15T15:26:34.244Z,17.90
2019-01-15T15:29:21.258Z,16.23
2019-01-15T15:32:19.695Z,16.87
2019-01-15T15:35:26.471Z,14.47
2019-01-15T15:38:29.226Z,19.17
2019-01-15T15:41:21.419Z,15.30
2019-01-15T15:44:22.978Z,19.47
2019-01-15T15:47:12.583Z,13.70
2019-01-15T15:49:59.105Z,13.43
2019-01-15T15:52:45.979Z,12.07
2019-01-15T15:55:38.230Z,13.90
2019-01-15T15:58:27.961Z,10.83
2019-01-15T16:01:14.865Z,12.00
2019-01-15T16:04:01.950Z,15.33
2019-01-15T16:07:04.933Z,11.60
2019-01-15T16:10:07.780Z,13.27
2019-01-15T16:12:54.948Z,11.80
2019-01-15T16:15:53.692Z,14.93
2019-01-15T16:18:40.047Z,15.27
2019-01-15T16:21:44.574Z,12.57
2019-01-15T16:24:31.243Z,16.77
2019-01-15T16:27:18.314Z,13.73
2019-01-15T16:30:17.349Z,13.47
2019-01-15T16:33:04.309Z,14.10
2019-01-15T16:35:59.445Z,19.27
2019-01-15T16:39:02.163Z,21.73
2019-01-15T16:41:51.277Z,13.37
2019-01-15T16:44:55.489Z,13.60
2019-01-15T16:47:44.637Z,11.97
2019-01-15T16:50:43.574Z,14.57
2019-01-15T16:53:30.835Z,13.63
2019-01-15T16:56:23.293Z,12.63
2019-01-15T16:59:15.576Z,13.57
2019-01-15T17:02:05.173Z,14.03
2019-01-15T17:04:54.307Z,14.60
2019-01-15T17:07:52.793Z,17.43
2019-01-15T17:10:41.730Z,15.90
2019-01-15T17:13:28.257Z,16.60
2019-01-15T17:16:14.847Z,15.40
2019-01-15T17:19:10.122Z,18.27
2019-01-15T17:22:02.918Z,14.67
2019-01-15T17:24:49.896Z,17.00
2019-01-15T17:27:36.772Z,19.60
2019-01-15T17:30:29.385Z,16.37
2019-01-15T17:33:27.855Z,17.40
2019-01-15T17:36:14.952Z,16.70
2019-01-15T17:39:07.627Z,18.30
2019-01-15T17:42:00.278Z,15.80
2019-01-15T17:45:01.520Z,17.10
2019-01-15T17:47:50.798Z,18.60
2019-01-15T17:50:43.271Z,19.40
2019-01-15T17:53:36.132Z,18.13
2019-01-15T17:56:23.315Z,15.60
2019-01-15T17:59:13.041Z,16.60
2019-01-15T18:02:02.756Z,16.33
2019-01-15T18:05:05.677Z,15.70
2019-01-15T18:07:52.904Z,18.07
2019-01-15T18:10:42.215Z,15.97
2019-01-15T18:13:45.368Z,19.87
2019-01-15T18:16:35.152Z,16.93
2019-01-15T18:19:22.182Z,17.73
2019-01-15T18:22:24.887Z,16.17
2019-01-15T18:25:11.522Z,14.97
2019-01-15T18:28:10.476Z,16.03
2019-01-15T18:31:03.740Z,18.33
2019-01-15T18:33:50.557Z,19.07
2019-01-15T18:36:46.018Z,16.43
2019-01-15T18:39:33.503Z,18.13
2019-01-15T18:42:23.034Z,15.67
2019-01-15T18:45:27.891Z,15.80
2019-01-15T18:48:20.082Z,18.87
2019-01-15T18:51:09.381Z,19.07
2019-01-15T18:54:08.181Z,16.30
2019-01-15T18:56:54.814Z,15.07
2019-01-15T18:59:43.915Z,20.63
2019-01-15T19:02:33.576Z,16.27
2019-01-15T19:05:23.145Z,17.30
2019-01-15T19:08:10.120Z,18.63
2019-01-15T19:11:02.343Z,20.20
2019-01-15T19:13:57.752Z,17.00
2019-01-15T19:16:44.782Z,17.33
2019-01-15T19:19:40.497Z,16.63
2019-01-15T19:22:27.823Z,19.63
2019-01-15T19:25:17.662Z,18.73
2019-01-15T19:28:23.383Z,16.87
2019-01-15T19:31:26.041Z,18.90
2019-01-15T19:34:12.581Z,17.37
2019-01-15T19:37:16.006Z,19.03
2019-01-15T19:40:05.849Z,23.33
2019-01-15T19:43:08.972Z,20.37
2019-01-15T19:46:07.239Z,21.10
2019-01-15T19:48:59.862Z,22.17
2019-01-15T19:51:47.027Z,21.40
2019-01-15T19:54:34.091Z,22.93
2019-01-15T19:57:21.136Z,20.53
2019-01-15T20:00:20.012Z,21.53
2019-01-15T20:03:12.798Z,25.73
2019-01-15T20:05:59.893Z,24.40
2019-01-15T20:08:58.504Z,23.97
2019-01-15T20:11:48.451Z,21.93
2019-01-15T20:14:53.246Z,20.40
2019-01-15T20:17:45.876Z,23.67
2019-01-15T20:20:41.550Z,23.30
2019-01-15T20:23:33.937Z,21.80
2019-01-15T20:26:27.057Z,20.97
2019-01-15T20:29:14.154Z,22.37
2019-01-15T20:32:12.682Z,22.20
2019-01-15T20:34:59.897Z,24.93
2019-01-15T20:37:52.344Z,25.97
2019-01-15T20:40:39.313Z,26.73
2019-01-15T20:43:26.384Z,29.07
2019-01-15T20:46:18.662Z,23.70
2019-01-15T20:49:21.867Z,26.50
2019-01-15T20:52:08.460Z,26.70
2019-01-15T20:54:55.131Z,27.50
2019-01-15T20:57:47.605Z,28.77
2019-01-15T21:00:36.693Z,26.20
2019-01-15T21:03:39.502Z,24.90
2019-01-15T21:06:26.450Z,27.43
2019-01-15T21:09:13.115Z,26.33
2019-01-15T21:12:16.348Z,22.63
2019-01-15T21:15:12.654Z,23.20
2019-01-15T21:18:05.272Z,24.67
2019-01-15T21:21:03.990Z,23.33
2019-01-15T21:23:51.016Z,26.77
2019-01-15T21:26:40.586Z,23.20
2019-01-15T21:29:36.019Z,20.97
2019-01-15T21:32:37.201Z,23.73
2019-01-15T21:35:23.879Z,21.50
2019-01-15T21:38:11.007Z,22.87
2019-01-15T21:41:03.640Z,20.47
2019-01-15T21:43:55.815Z,25.53
2019-01-15T21:46:56.898Z,23.13
2019-01-15T21:50:00.287Z,19.87
2019-01-15T21:53:04.609Z,22.03
2019-01-15T21:55:57.252Z,22.30
2019-01-15T21:58:44.449Z,22.27
2019-01-15T22:01:49.095Z,20.93
2019-01-15T22:04:53.468Z,21.57
2019-01-15T22:07:43.215Z,19.97
2019-01-15T22:10:45.813Z,17.77
2019-01-15T22:13:35.019Z,16.90
2019-01-15T22:16:31.136Z,16.67
2019-01-15T22:19:18.087Z,19.33
2019-01-15T22:22:08.032Z,18.80
2019-01-15T22:25:11.151Z,15.73
2019-01-15T22:28:06.284Z,19.20
2019-01-15T22:30:53.049Z,17.33
2019-01-15T22:33:57.570Z,16.37
2019-01-15T22:37:01.043Z,16.97
2019-01-15T22:40:03.520Z,16.53
2019-01-15T22:43:08.017Z,16.20
2019-01-15T22:46:06.021Z,16.60
2019-01-15T22:48:52.705Z,16.63
2019-01-15T22:51:42.337Z,13.90
2019-01-15T22:54:28.909Z,16.10
2019-01-15T22:57:15.375Z,15.43
2019-01-15T23:00:18.357Z,18.03
2019-01-15T23:03:07.387Z,15.97
2019-01-15T23:05:53.849Z,16.87
2019-01-15T23:08:43.034Z,16.67
2019-01-15T23:11:35.904Z,16.40
2019-01-15T23:14:22.869Z,15.83
2019-01-15T23:17:27.395Z,15.30
2019-01-15T23:20:14.044Z,14.50
2019-01-15T23:23:03.521Z,17.67
2019-01-15T23:25:55.726Z,14.83
2019-01-15T23:28:48.005Z,14.80
2019-01-15T23:31:34.626Z,13.77
2019-01-15T23:34:21.711Z,14.93
2019-01-15T23:37:26.005Z,17.10
2019-01-15T23:40:12.935Z,15.10
2019-01-15T23:43:02.103Z,12.60
2019-01-15T23:45:48.955Z,13.90
2019-01-15T23:48:36.215Z,12.97
2019-01-15T23:51:22.745Z,16.23
2019-01-15T23:54:25.430Z,15.93
2019-01-15T23:57:20.685Z,15.63
